Carnerillo, Argentina
Current Conditions -  °F | °C
As of 4:00 PM on Friday 28 Nov 2014 (Local Time) from SAOC Reporting Station
Scattered Clouds Scattered Clouds  
Wind Chill: 86°   Ceiling: Unl
Heat Index: 86°   Visibility: 6mi
Dew Point: 43°   Wind: 30mph
Humidity: 22%   Direction: 360°N
Pressure: 29.74"   Gusts: 41mph
Location:  32.92°S, 64.02°W
Report Text: SAOC 281900Z 36026G36KT 9999 FEW025 SCT100 30/06 Q1007
Loading
Personal Weather Stations






























Interactive Weather Map New forecast layout! Learn more

10-Day Weather Forecast

Advertisements
Track Severe Weather on mobile